KORC

Details ICAO KORC
Name ORANGE CITY MUNI
Region United States
Timezone America/Chicago (UTC-6.0)
Plans Departing 1
Arriving 1
Stats Elevation 1,414 ft / 431 m (AMSL)
Location 42.990264° -96.062797°
Runways 1
Magnetic Variation 2.571° E
Sunrise 2017-12-14 13:49:27 UTC / 2017-12-14 07:49:27 Local
Sunset 2017-12-14 22:51:28 UTC / 2017-12-14 16:51:28 Local
Advertisement - Login to hide

Runways

ID Width Length Bearing (true) Bearing (mag) Surface Threshold Offset Overrun Length
16 60 ft / 18 m 4,254 ft / 1,297 m 164.82° 162.25° Concrete 0 ft / 0 m 0 ft / 0 m
34 60 ft / 18 m 4,254 ft / 1,297 m 344.82° 342.25° Concrete 0 ft / 0 m 0 ft / 0 m

Map

Weather


0- 5 10 15 20 25 30 35+ Temperature / ° C

Clouds and Precipitation
Forecast for 2017-12-15 00:00 UTC. Updated 8 minutes ago

Ground ~20,000 ft ~40,000 ft Winds

METAR

KORC 141915Z AUTO 34004KT 10SM SCT023 OVC033 02/M02 A3004 RMK AO2

TAF

Not found

Frequencies

Recorded 127.82 MHz AWOS 3
Approach 124.10 MHz MINNEAPOLIS CNTR
Unicom 122.80 MHz CTAF/UNICOM
Warning: Do not use this data for real-world aviation or navigation. No guarantee of current accuracy is given.